createdAt,value
2023-03-05T00:00:47.062Z,86.0
2023-03-05T00:05:53.263Z,86.0
2023-03-05T00:10:59.464Z,86.5
2023-03-05T00:16:05.728Z,86.5
2023-03-05T00:21:11.875Z,86.5
2023-03-05T00:26:18.081Z,86.5
2023-03-05T00:31:24.350Z,86.5
2023-03-05T00:36:30.510Z,87.0
2023-03-05T00:41:36.709Z,87.0
2023-03-05T00:46:42.950Z,87.0
2023-03-05T00:51:49.123Z,87.0
2023-03-05T00:56:55.354Z,87.0
2023-03-05T01:02:01.620Z,87.0
2023-03-05T01:07:08.073Z,87.0
2023-03-05T01:12:13.937Z,87.0
2023-03-05T01:17:20.152Z,87.0
2023-03-05T01:22:26.352Z,87.0
2023-03-05T01:27:32.551Z,87.0
2023-03-05T01:32:38.872Z,87.5
2023-03-05T01:37:44.976Z,87.5
2023-03-05T01:42:50.205Z,87.5
2023-03-05T01:47:56.411Z,87.0
2023-03-05T01:53:02.616Z,87.5
2023-03-05T01:58:07.851Z,87.5
2023-03-05T02:03:14.059Z,87.5
2023-03-05T02:08:20.270Z,87.5
2023-03-05T02:13:26.482Z,87.5
2023-03-05T02:18:32.690Z,87.5
2023-03-05T02:23:38.908Z,87.5
2023-03-05T02:28:45.104Z,87.5
2023-03-05T02:33:51.336Z,87.5
2023-03-05T02:38:57.522Z,87.5
2023-03-05T02:44:03.725Z,87.5
2023-03-05T02:49:09.948Z,88.0
2023-03-05T02:54:16.140Z,88.0
2023-03-05T02:59:22.350Z,88.0
2023-03-05T03:04:28.554Z,88.0
2023-03-05T03:09:34.764Z,88.0
2023-03-05T03:14:40.968Z,88.0
2023-03-05T03:19:47.197Z,88.0
2023-03-05T03:24:53.400Z,88.0
2023-03-05T03:29:59.592Z,88.0
2023-03-05T03:35:05.826Z,88.0
2023-03-05T03:40:12.035Z,88.5
2023-03-05T03:45:17.246Z,88.5
2023-03-05T03:50:23.449Z,88.5
2023-03-05T03:55:28.692Z,88.5
2023-03-05T04:00:34.904Z,88.5
2023-03-05T04:05:41.136Z,88.5
2023-03-05T04:10:47.314Z,88.5
2023-03-05T04:15:53.630Z,88.5
2023-03-05T04:20:59.888Z,88.5
2023-03-05T04:26:05.939Z,88.5
2023-03-05T04:31:12.181Z,89.0
2023-03-05T04:36:18.354Z,89.0
2023-03-05T04:41:24.561Z,89.5
2023-03-05T04:46:30.860Z,89.5
2023-03-05T04:51:36.963Z,89.5
2023-03-05T04:56:43.189Z,89.5
2023-03-05T05:01:49.437Z,89.5
2023-03-05T05:06:55.593Z,89.5
2023-03-05T05:12:01.804Z,89.5
2023-03-05T05:17:08.010Z,89.5
2023-03-05T05:22:14.219Z,89.5
2023-03-05T05:27:20.425Z,89.5
2023-03-05T05:32:26.633Z,89.5
2023-03-05T05:37:32.967Z,89.5
2023-03-05T05:42:38.076Z,89.5
2023-03-05T05:47:43.335Z,89.5
2023-03-05T05:52:49.519Z,89.5
2023-03-05T05:57:54.764Z,89.5
2023-03-05T06:03:01.024Z,89.5
2023-03-05T06:08:07.160Z,89.5
2023-03-05T06:13:13.454Z,90.0
2023-03-05T06:18:19.575Z,90.0
2023-03-05T06:23:25.782Z,90.0
2023-03-05T06:28:31.992Z,90.0
2023-03-05T06:33:38.202Z,90.0
2023-03-05T06:38:44.422Z,90.0
2023-03-05T06:43:50.662Z,90.0
2023-03-05T06:48:55.848Z,90.0
2023-03-05T06:54:02.049Z,90.0
2023-03-05T06:59:08.254Z,90.0
2023-03-05T07:04:14.474Z,90.0
2023-03-05T07:09:20.666Z,90.0
2023-03-05T07:14:26.879Z,90.5
2023-03-05T07:19:33.084Z,90.5
2023-03-05T07:24:39.304Z,90.5
2023-03-05T07:29:45.494Z,90.5
2023-03-05T07:34:51.717Z,90.5
2023-03-05T07:39:57.919Z,90.5
2023-03-05T07:45:03.151Z,90.5
2023-03-05T07:50:09.366Z,90.5
2023-03-05T07:55:14.596Z,90.5
2023-03-05T08:00:20.802Z,90.5
2023-03-05T08:05:27.011Z,91.0
2023-03-05T08:10:33.219Z,91.0
2023-03-05T08:15:39.572Z,91.0
2023-03-05T08:20:45.624Z,91.0
2023-03-05T08:25:51.838Z,91.0
2023-03-05T08:30:58.120Z,91.0
2023-03-05T08:36:04.257Z,91.0
2023-03-05T08:41:10.497Z,90.5
2023-03-05T08:46:16.756Z,90.5
2023-03-05T08:51:22.873Z,90.5
2023-03-05T08:56:29.093Z,90.5
2023-03-05T09:01:35.384Z,90.5
2023-03-05T09:06:41.506Z,91.0
2023-03-05T09:11:47.714Z,91.0
2023-03-05T09:16:53.917Z,91.0
2023-03-05T09:22:00.160Z,91.0
2023-03-05T09:27:06.332Z,91.0
2023-03-05T09:32:12.586Z,91.0
2023-03-05T09:37:18.749Z,90.5
2023-03-05T09:42:23.982Z,90.5
2023-03-05T09:47:30.183Z,90.0
2023-03-05T09:52:35.431Z,90.0
2023-03-05T09:57:41.630Z,89.5
2023-03-05T10:02:47.874Z,89.5
2023-03-05T10:07:54.068Z,90.0
2023-03-05T10:13:00.252Z,90.0
2023-03-05T10:18:06.461Z,89.5
2023-03-05T10:23:12.725Z,89.0
2023-03-05T10:28:18.884Z,88.5
2023-03-05T10:33:25.099Z,88.0
2023-03-05T10:38:31.306Z,88.0
2023-03-05T10:43:37.504Z,87.5
2023-03-05T10:48:43.710Z,87.5
2023-03-05T10:53:49.917Z,88.0
2023-03-05T10:58:56.159Z,89.0
2023-03-05T11:04:02.349Z,89.5
2023-03-05T11:09:08.542Z,90.0
2023-03-05T11:14:14.761Z,90.5
2023-03-05T11:19:20.968Z,91.0
2023-03-05T11:24:27.177Z,91.0
2023-03-05T11:29:33.363Z,91.0
2023-03-05T11:34:39.578Z,91.0
2023-03-05T11:39:44.807Z,91.0
2023-03-05T11:44:51.056Z,91.0
2023-03-05T11:49:56.257Z,91.0
2023-03-05T11:55:02.464Z,91.0
2023-03-05T12:00:08.705Z,91.0
2023-03-05T12:05:14.891Z,91.0
2023-03-05T12:10:21.100Z,90.5
2023-03-05T12:15:27.299Z,90.5
2023-03-05T12:20:33.572Z,90.5
2023-03-05T12:25:39.719Z,90.0
2023-03-05T12:30:46.253Z,90.0
2023-03-05T12:35:52.168Z,89.5
2023-03-05T12:40:58.343Z,89.0
2023-03-05T12:46:04.547Z,88.5
2023-03-05T12:51:10.756Z,88.5
2023-03-05T12:56:16.972Z,88.5
2023-03-05T13:01:23.175Z,88.5
2023-03-05T13:06:29.369Z,88.0
2023-03-05T13:11:35.580Z,87.5
2023-03-05T13:16:41.936Z,86.5
2023-03-05T13:21:48.198Z,86.5
2023-03-05T13:26:54.203Z,86.5
2023-03-05T13:32:00.528Z,86.0
2023-03-05T13:37:05.645Z,85.5
2023-03-05T13:42:11.857Z,85.0
2023-03-05T13:47:18.139Z,84.5
2023-03-05T13:52:23.294Z,84.5
2023-03-05T13:57:29.552Z,84.5
2023-03-05T14:02:35.713Z,84.0
2023-03-05T14:07:42.035Z,83.5
2023-03-05T14:12:48.128Z,83.5
2023-03-05T14:17:54.338Z,83.0
2023-03-05T14:23:00.542Z,83.0
2023-03-05T14:28:06.762Z,83.0
2023-03-05T14:33:12.961Z,83.0
2023-03-05T14:38:19.165Z,82.5
2023-03-05T14:43:25.372Z,82.0
2023-03-05T14:48:31.584Z,81.5
2023-03-05T14:53:37.794Z,81.5
2023-03-05T14:58:44.013Z,81.0
2023-03-05T15:03:50.224Z,81.0
2023-03-05T15:08:56.419Z,81.0
2023-03-05T15:14:02.629Z,80.5
2023-03-05T15:19:08.828Z,80.5
2023-03-05T15:24:15.055Z,80.5
2023-03-05T15:29:21.249Z,80.0
2023-03-05T15:34:27.451Z,79.5
2023-03-05T15:39:32.682Z,79.5
2023-03-05T15:44:38.942Z,79.5
2023-03-05T15:49:45.101Z,79.5
2023-03-05T15:54:50.334Z,79.5
2023-03-05T15:59:56.571Z,79.5
2023-03-05T16:05:02.751Z,79.5
2023-03-05T16:10:09.084Z,79.5
2023-03-05T16:15:15.173Z,79.5
2023-03-05T16:20:21.402Z,79.5
2023-03-05T16:25:27.584Z,79.5
2023-03-05T16:30:33.806Z,79.5
2023-03-05T16:35:40.057Z,80.0
2023-03-05T16:41:06.810Z,80.0
2023-03-05T16:45:52.423Z,80.0
2023-03-05T16:50:58.627Z,80.0
2023-03-05T16:56:04.840Z,80.5
2023-03-05T17:01:11.099Z,80.5
2023-03-05T17:06:17.260Z,80.5
2023-03-05T17:11:23.451Z,80.5
2023-03-05T17:16:29.711Z,80.5
2023-03-05T17:21:35.873Z,80.5
2023-03-05T17:26:42.159Z,80.5
2023-03-05T17:31:48.377Z,81.0
2023-03-05T17:36:54.514Z,81.0
2023-03-05T17:41:59.732Z,81.0
2023-03-05T17:47:05.932Z,81.0
2023-03-05T17:52:11.171Z,81.0
2023-03-05T17:57:17.388Z,81.0
2023-03-05T18:02:23.604Z,81.0
2023-03-05T18:07:29.792Z,81.5
2023-03-05T18:12:36.026Z,82.0
2023-03-05T18:17:42.243Z,82.0
2023-03-05T18:22:48.437Z,82.0
2023-03-05T18:27:54.631Z,82.0
2023-03-05T18:33:00.829Z,82.0
2023-03-05T18:38:07.042Z,82.0
2023-03-05T18:43:13.244Z,82.0
2023-03-05T18:48:19.452Z,82.5
2023-03-05T18:53:25.668Z,82.5
2023-03-05T18:58:31.865Z,82.5
2023-03-05T19:03:38.087Z,83.0
2023-03-05T19:08:44.287Z,83.0
2023-03-05T19:13:50.506Z,83.0
2023-03-05T19:18:56.701Z,83.5
2023-03-05T19:24:02.942Z,83.5
2023-03-05T19:29:09.238Z,83.5
2023-03-05T19:34:15.320Z,83.5
2023-03-05T19:39:20.565Z,83.5
2023-03-05T19:44:26.773Z,84.0
2023-03-05T19:49:32.010Z,84.5
2023-03-05T19:54:38.208Z,84.5
2023-03-05T19:59:44.443Z,84.5
2023-03-05T20:04:50.624Z,84.5
2023-03-05T20:09:56.855Z,84.5
2023-03-05T20:15:03.043Z,84.5
2023-03-05T20:20:09.245Z,85.0
2023-03-05T20:25:15.484Z,85.5
2023-03-05T20:30:21.662Z,86.0
2023-03-05T20:35:27.899Z,86.0
2023-03-05T20:40:34.079Z,86.5
2023-03-05T20:45:40.284Z,86.5
2023-03-05T20:50:46.493Z,87.0
2023-03-05T20:55:52.702Z,87.0
2023-03-05T21:00:59.048Z,87.5
2023-03-05T21:06:05.120Z,87.5
2023-03-05T21:11:11.339Z,87.5
2023-03-05T21:16:17.584Z,88.0
2023-03-05T21:21:23.743Z,88.0
2023-03-05T21:26:29.946Z,88.0
2023-03-05T21:31:36.207Z,88.0
2023-03-05T21:36:41.402Z,88.5
2023-03-05T21:41:47.591Z,88.5
2023-03-05T21:46:53.834Z,88.5
2023-03-05T21:51:59.049Z,88.5
2023-03-05T21:57:05.244Z,88.5
2023-03-05T22:02:11.475Z,89.0
2023-03-05T22:07:17.682Z,89.0
2023-03-05T22:12:23.859Z,89.5
2023-03-05T22:17:30.078Z,89.5
2023-03-05T22:22:36.277Z,89.5
2023-03-05T22:27:42.483Z,89.5
2023-03-05T22:32:48.690Z,89.5
2023-03-05T22:37:54.905Z,90.0
2023-03-05T22:43:01.112Z,90.0
2023-03-05T22:48:07.337Z,90.0
2023-03-05T22:53:13.540Z,90.0
2023-03-05T22:58:19.741Z,90.0
2023-03-05T23:03:25.978Z,90.0
2023-03-05T23:08:32.152Z,90.0
2023-03-05T23:13:38.371Z,90.0
2023-03-05T23:18:44.568Z,90.0
2023-03-05T23:23:50.780Z,90.5
2023-03-05T23:28:56.982Z,90.5
2023-03-05T23:34:03.187Z,90.5
2023-03-05T23:39:08.439Z,90.5
2023-03-05T23:44:14.624Z,90.0
2023-03-05T23:49:19.871Z,90.5
2023-03-05T23:54:25.103Z,90.5
2023-03-05T23:59:31.315Z,90.5
